^^
Datos históricos de la estación: Murcia-Puente Tocinos
Diario Informe para Noviembre 8, 2019 Unidades:  Ingés    Métrico   Ambas
Diario Semanal Mensual Anual
  Máxima: Mínima: Promedio:
Temperatura: 63.9 °F 52.5 °F 58.3 °F
Punto de rocio: 38.5 °F 32.5 °F 34.5 °F
Humedad: 58% 32% 41%
Velocidad viento: 13.5mph 2.4mph 7.8mph
Racha viento: 25.3mph - -
Viento- - OSO
Presión: 30.1 in 29.8 in -
Precipitación: 0 in    
 
 
Tabla de datos para Noviembre 8, 2019
Hora Temperatura Punto de rocio Presión Viento Velocidad viento Racha viento Humedad Intensidad lluvia(por hora) Nubes
00:04 59.5 °F 37 °F 29.8 in OSO 6 mph 13.8 mph 43% 0 in
00:09 59.5 °F 37 °F 29.8 in OSO 6.2 mph 14 mph 43% 0 in
00:14 59.4 °F 36.9 °F 29.8 in OSO 6.2 mph 9.2 mph 43% 0 in
00:19 59.2 °F 36.7 °F 29.8 in OSO 6.2 mph 10.4 mph 43% 0 in
00:24 59 °F 36.5 °F 29.8 in SO 5.5 mph 10 mph 43% 0 in
00:29 58.8 °F 36.3 °F 29.8 in OSO 5.4 mph 10.7 mph 42.9% 0 in
00:34 58.8 °F 36 °F 29.8 in OSO 5.2 mph 11 mph 42.3% 0 in
00:39 58.6 °F 35.6 °F 29.8 in OSO 5.2 mph 11.8 mph 42% 0 in
00:44 58.6 °F 35.6 °F 29.8 in OSO 6 mph 12 mph 42% 0 in
00:49 58.5 °F 34.9 °F 29.8 in OSO 6.2 mph 10.4 mph 41.2% 0 in
00:54 58.5 °F 34.7 °F 29.8 in OSO 5 mph 11.5 mph 41% 0 in
00:59 58.3 °F 34.7 °F 29.8 in OSO 4.7 mph 12 mph 41% 0 in
01:04 58.5 °F 34.2 °F 29.8 in OSO 5.7 mph 10.7 mph 40.1% 0 in
01:09 58.5 °F 34.2 °F 29.8 in OSO 5.9 mph 11.4 mph 40% 0 in
01:14 58.5 °F 34.2 °F 29.8 in OSO 6.2 mph 11.5 mph 40% 0 in
01:19 58.5 °F 34 °F 29.8 in OSO 6.2 mph 12.7 mph 39.7% 0 in
01:24 58.6 °F 34.2 °F 29.8 in OSO 6.8 mph 13 mph 39.7% 0 in
01:29 58.6 °F 34.3 °F 29.8 in OSO 6.9 mph 13.8 mph 40% 0 in
01:34 58.6 °F 34.3 °F 29.8 in OSO 6.9 mph 14 mph 40% 0 in
01:39 58.5 °F 34.5 °F 29.8 in ONO 6.9 mph 13 mph 40.5% 0 in
01:44 58.1 °F 34.9 °F 29.8 in NO 5.2 mph 9 mph 41.6% 0 in
01:49 57.2 °F 34.9 °F 29.8 in ONO 4.7 mph 8.5 mph 42.8% 0 in
01:54 56.3 °F 34.9 °F 29.8 in ONO 4.4 mph 9 mph 44.4% 0 in
01:59 55.8 °F 35.1 °F 29.8 in ONO 4.3 mph 10.2 mph 45.5% 0 in
02:04 55.4 °F 34.9 °F 29.8 in ONO 4.7 mph 10.4 mph 46% 0 in
02:09 55.2 °F 34.9 °F 29.8 in Oeste 4.7 mph 8.1 mph 46% 0 in
02:14 55.2 °F 34.9 °F 29.8 in Oeste 4.7 mph 8 mph 46.1% 0 in
02:19 55 °F 35.2 °F 29.8 in Oeste 4.7 mph 7 mph 47% 0 in
02:24 55 °F 35.2 °F 29.8 in Oeste 3.9 mph 6 mph 47% 0 in
02:29 55 °F 35.2 °F 29.8 in ONO 3.6 mph 6 mph 47% 0 in
02:34 55 °F 35.2 °F 29.8 in Oeste 3.2 mph 6.2 mph 47% 0 in
02:39 54.9 °F 35.1 °F 29.8 in ONO 3.1 mph 8.1 mph 47% 0 in
02:44 54.9 °F 35.1 °F 29.8 in ONO 3.9 mph 8 mph 47% 0 in
02:49 54.9 °F 35.1 °F 29.8 in Oeste 4 mph 8.1 mph 47.1% 0 in
02:54 54.9 °F 35.2 °F 29.8 in ONO 4.6 mph 8 mph 47.4% 0 in
02:59 55 °F 35.2 °F 29.8 in ONO 4.7 mph 9.2 mph 47.2% 0 in
03:04 55 °F 35.2 °F 29.8 in ONO 4.3 mph 9.2 mph 47% 0 in
03:09 54.9 °F 35.6 °F 29.8 in NO 4.3 mph 10.4 mph 47.9% 0 in
03:14 54.5 °F 35.4 °F 29.8 in NO 5.2 mph 10 mph 48.2% 0 in
03:19 54.3 °F 35.4 °F 29.8 in ONO 5.4 mph 9.7 mph 49% 0 in
03:24 54.3 °F 35.4 °F 29.8 in ONO 5.8 mph 11.4 mph 49% 0 in
03:29 54.5 °F 35.8 °F 29.8 in ONO 5.9 mph 12 mph 49% 0 in
03:34 54.7 °F 36.1 °F 29.8 in ONO 6.3 mph 12 mph 49.5% 0 in
03:39 54.5 °F 36.5 °F 29.8 in NO 6.4 mph 10 mph 50.4% 0 in
03:44 54.1 °F 36.5 °F 29.8 in NNO 4.7 mph 8 mph 51.2% 0 in
03:49 53.8 °F 36.9 °F 29.8 in NO 4.3 mph 5.8 mph 52.6% 0 in
03:54 53.6 °F 37.4 °F 29.8 in ONO 3.4 mph 11.5 mph 54.2% 0 in
03:59 54 °F 37.9 °F 29.8 in ONO 3.1 mph 12 mph 54.5% 0 in
04:04 54.5 °F 38.1 °F 29.8 in ONO 6 mph 12 mph 54% 0 in
04:09 54.7 °F 38.5 °F 29.8 in ONO 6.4 mph 9.7 mph 54% 0 in
04:14 54.7 °F 38.5 °F 29.8 in ONO 5.6 mph 10 mph 54% 0 in
04:19 54.3 °F 38.5 °F 29.8 in ONO 5.4 mph 9 mph 54.8% 0 in
04:24 54.1 °F 38.3 °F 29.8 in ONO 5.2 mph 8.5 mph 55% 0 in
04:29 54 °F 38.1 °F 29.8 in ONO 5.2 mph 10.4 mph 55% 0 in
04:34 54 °F 38.3 °F 29.8 in ONO 5.8 mph 10 mph 55.4% 0 in
04:39 54 °F 38.5 °F 29.8 in ONO 5.9 mph 10.7 mph 56% 0 in
04:44 53.8 °F 38.5 °F 29.8 in ONO 5.9 mph 11 mph 56% 0 in
04:49 53.8 °F 38.5 °F 29.8 in ONO 5.9 mph 11 mph 56% 0 in
04:54 54 °F 38.5 °F 29.8 in ONO 6.3 mph 11 mph 56% 0 in
04:59 53.8 °F 38.5 °F 29.8 in Oeste 6.4 mph 11.4 mph 56% 0 in
05:04 53.8 °F 38.3 °F 29.8 in Oeste 6.4 mph 12 mph 56% 0 in
05:09 53.4 °F 38.1 °F 29.8 in Oeste 6.4 mph 12 mph 56% 0 in
05:14 53.4 °F 38.1 °F 29.8 in Oeste 6 mph 10.4 mph 56% 0 in
05:19 53.2 °F 37.9 °F 29.8 in Oeste 5.9 mph 10 mph 56% 0 in
05:24 53.2 °F 37.9 °F 29.9 in Oeste 5.5 mph 8.5 mph 56% 0 in
05:29 53.2 °F 37.9 °F 29.9 in Oeste 5.4 mph 9 mph 56% 0 in
05:34 53.2 °F 37.9 °F 29.9 in Oeste 4.3 mph 10.4 mph 56% 0 in
05:39 53.2 °F 37.9 °F 29.9 in Oeste 4 mph 10 mph 56% 0 in
05:44 53.4 °F 37.8 °F 29.9 in Oeste 4.6 mph 9.2 mph 55.4% 0 in
05:49 53.4 °F 37.8 °F 29.9 in Oeste 4.7 mph 9 mph 55% 0 in
05:54 53.6 °F 37.4 °F 29.9 in Oeste 5.3 mph 8.5 mph 54% 0 in
05:59 53.8 °F 37.6 °F 29.9 in OSO 5.4 mph 9 mph 54% 0 in
06:04 53.8 °F 37 °F 29.9 in OSO 4.5 mph 8.1 mph 53.1% 0 in
06:09 53.8 °F 37 °F 29.9 in Sur 4.3 mph 8 mph 53% 0 in
06:14 53.8 °F 37.4 °F 29.9 in SSE 3.4 mph 6 mph 53.6% 0 in
06:19 53.8 °F 38.1 °F 29.9 in SE 3.1 mph 5 mph 55.4% 0 in
06:24 53.4 °F 38.1 °F 29.9 in SE 2.9 mph 5 mph 56.1% 0 in
06:29 53.1 °F 38.3 °F 29.9 in SE 2.9 mph 5 mph 57% 0 in
06:34 53.1 °F 38.5 °F 29.9 in ESE 2.5 mph 5 mph 57.6% 0 in
06:39 52.9 °F 38.5 °F 29.9 in ESE 2.4 mph 5.4 mph 57.9% 0 in
06:44 52.7 °F 38.3 °F 29.9 in ESE 2.4 mph 6 mph 58% 0 in
06:49 52.5 °F 37.6 °F 29.9 in Sur 2.4 mph 5.9 mph 56.8% 0 in
06:54 52.9 °F 37.2 °F 29.9 in Oeste 2.8 mph 6 mph 55.4% 0 in
06:59 53.1 °F 37.2 °F 29.9 in OSO 2.9 mph 6 mph 54.9% 0 in
07:04 53.1 °F 36.9 °F 29.9 in Oeste 3 mph 8.7 mph 54.2% 0 in
07:09 53.2 °F 36.3 °F 29.9 in Oeste 3.1 mph 15 mph 52.8% 0 in
07:14 53.6 °F 36 °F 29.9 in Oeste 5.4 mph 15 mph 51.2% 0 in
07:19 54 °F 35.8 °F 29.9 in Oeste 5.9 mph 17.3 mph 49.9% 0 in
07:24 54.5 °F 35.4 °F 29.9 in Oeste 8.1 mph 18.5 mph 48.7% 0 in
07:29 54.9 °F 35.2 °F 29.9 in Oeste 8.7 mph 19.7 mph 47.5% 0 in
07:34 55 °F 35.2 °F 29.9 in Oeste 10.3 mph 20 mph 47% 0 in
07:39 55.2 °F 35.1 °F 29.9 in Oeste 10.7 mph 21.9 mph 46.4% 0 in
07:44 55.2 °F 35.1 °F 29.9 in Oeste 10.7 mph 22 mph 46.7% 0 in
07:49 55 °F 34.9 °F 29.9 in Oeste 10.7 mph 17 mph 46.4% 0 in
07:54 55 °F 34.7 °F 29.9 in Oeste 8.9 mph 16.1 mph 46.2% 0 in
07:59 54.9 °F 34.5 °F 29.9 in OSO 8.5 mph 16 mph 46% 0 in
08:04 54.9 °F 34.5 °F 29.9 in OSO 8.1 mph 16.3 mph 46% 0 in
08:09 55 °F 34.5 °F 29.9 in OSO 8.1 mph 16.1 mph 46% 0 in
08:14 55 °F 34.5 °F 29.9 in Oeste 8.1 mph 16.1 mph 46% 0 in
08:19 55 °F 34.7 °F 29.9 in OSO 8.1 mph 18.4 mph 46% 0 in
08:24 55.2 °F 34.9 °F 29.9 in OSO 9 mph 18 mph 46% 0 in
08:29 55.4 °F 35.1 °F 29.9 in OSO 9.2 mph 17.8 mph 46% 0 in
08:34 55.6 °F 35.1 °F 29.9 in Oeste 9.6 mph 18.5 mph 46% 0 in
08:39 55.6 °F 35.1 °F 29.9 in Oeste 9.7 mph 19 mph 46% 0 in
08:44 55.8 °F 35.2 °F 29.9 in Oeste 9.3 mph 20.4 mph 46% 0 in
08:49 55.9 °F 35.4 °F 29.9 in Oeste 9.2 mph 21 mph 46% 0 in
08:54 55.9 °F 35.4 °F 29.9 in Oeste 9.6 mph 21.9 mph 46% 0 in
08:59 56.1 °F 35.6 °F 29.9 in ONO 9.7 mph 22 mph 46% 0 in
09:04 56.3 °F 35.8 °F 29.9 in ONO 9.7 mph 15 mph 46% 0 in
09:09 56.5 °F 35.8 °F 29.9 in ONO 9.7 mph 15.6 mph 45.8% 0 in
09:14 56.5 °F 35.8 °F 29.9 in ONO 8.9 mph 16.3 mph 45.7% 0 in
09:19 56.5 °F 36 °F 29.9 in ONO 8.7 mph 16 mph 46% 0 in
09:24 56.5 °F 36 °F 29.9 in ONO 8.7 mph 20.1 mph 45.9% 0 in
09:29 56.5 °F 35.4 °F 29.9 in ONO 8.7 mph 21 mph 45.1% 0 in
09:34 56.5 °F 36 °F 29.9 in ONO 10.9 mph 21 mph 45.8% 0 in
09:39 56.7 °F 35.6 °F 29.9 in ONO 11.4 mph 19.7 mph 45.1% 0 in
09:44 56.7 °F 35.6 °F 29.9 in ONO 10.3 mph 20 mph 45.3% 0 in
09:49 56.7 °F 35.6 °F 29.9 in ONO 10 mph 20 mph 45.2% 0 in
09:54 56.8 °F 35.2 °F 29.9 in Oeste 8.9 mph 22.3 mph 44.3% 0 in
09:59 57 °F 35.1 °F 29.9 in ONO 8.7 mph 22 mph 43.6% 0 in
10:04 57 °F 34.9 °F 29.9 in ONO 11.7 mph 19 mph 43.2% 0 in
10:09 57.2 °F 34.9 °F 29.9 in ONO 12.3 mph 19 mph 43% 0 in
10:14 57.4 °F 35.1 °F 29.9 in ONO 11.9 mph 18 mph 43% 0 in
10:19 57.6 °F 34.9 °F 29.9 in ONO 11.8 mph 24.2 mph 42.2% 0 in
10:24 57.6 °F 34.3 °F 29.9 in Oeste 10.1 mph 24 mph 41.5% 0 in
10:29 57.6 °F 34.3 °F 29.9 in Oeste 9.7 mph 22 mph 41.5% 0 in
10:34 57.7 °F 34.5 °F 29.9 in ONO 11.1 mph 20 mph 41.6% 0 in
10:39 57.9 °F 34.3 °F 29.9 in Oeste 11.4 mph 20.1 mph 41% 0 in
10:44 57.9 °F 34.2 °F 29.9 in Oeste 10.3 mph 21 mph 40.6% 0 in
10:49 58.3 °F 34.2 °F 29.9 in ONO 10 mph 20.8 mph 40.2% 0 in
10:54 58.1 °F 34 °F 29.9 in ONO 10 mph 21 mph 40.2% 0 in
10:59 58.3 °F 34 °F 29.9 in ONO 10 mph 18.4 mph 40% 0 in
11:04 58.5 °F 34.2 °F 29.9 in ONO 8.7 mph 20.1 mph 39.9% 0 in
11:09 58.6 °F 34 °F 29.9 in ONO 8.5 mph 23 mph 39.3% 0 in
11:14 58.8 °F 34 °F 29.9 in ONO 10.7 mph 23 mph 39.1% 0 in
11:19 58.8 °F 34 °F 29.9 in ONO 11.2 mph 24.6 mph 39% 0 in
11:24 58.8 °F 33.8 °F 29.9 in ONO 12.7 mph 25 mph 39% 0 in
11:29 58.8 °F 34 °F 29.9 in Oeste 13 mph 23 mph 39.1% 0 in
11:34 59.2 °F 34.2 °F 29.9 in Oeste 11.7 mph 21.9 mph 38.9% 0 in
11:39 59.4 °F 34.3 °F 29.9 in Oeste 11.4 mph 24.2 mph 39% 0 in
11:44 59.5 °F 34.2 °F 29.9 in Oeste 11.4 mph 24.8 mph 38.5% 0 in
11:49 59.5 °F 34 °F 29.9 in Oeste 11.4 mph 25.3 mph 38.3% 0 in
11:54 59.5 °F 34.2 °F 29.9 in Oeste 11.2 mph 21 mph 38.3% 0 in
11:59 59.5 °F 34 °F 29.9 in ONO 11.2 mph 20.7 mph 38% 0 in
12:04 59.5 °F 34 °F 29.9 in ONO 11.7 mph 21.9 mph 38% 0 in
12:09 59.7 °F 34.2 °F 29.9 in ONO 11.8 mph 22 mph 38% 0 in
12:14 60.1 °F 33.6 °F 29.9 in Oeste 11.5 mph 23.5 mph 36.9% 0 in
12:19 60.3 °F 33.3 °F 29.9 in Oeste 11.4 mph 23 mph 36.2% 0 in
12:24 60.3 °F 33.3 °F 29.9 in Oeste 13 mph 22 mph 36.2% 0 in
12:29 60.3 °F 33.4 °F 29.9 in Oeste 13.5 mph 23.5 mph 36.2% 0 in
12:34 60.3 °F 33.3 °F 29.9 in OSO 11.6 mph 23 mph 36.2% 0 in
12:39 60.6 °F 33.4 °F 29.9 in Oeste 11.2 mph 19 mph 36.1% 0 in
12:44 60.4 °F 33.3 °F 29.9 in Oeste 10.8 mph 17 mph 36% 0 in
12:49 60.6 °F 33.6 °F 29.9 in Oeste 10.7 mph 17.3 mph 36% 0 in
12:54 61 °F 33.6 °F 29.9 in Oeste 8.1 mph 17 mph 35.9% 0 in
12:59 61.2 °F 33.3 °F 29.9 in Oeste 7.6 mph 19.6 mph 35.1% 0 in
13:04 61.2 °F 33.4 °F 29.9 in Oeste 8.5 mph 20 mph 35.4% 0 in
13:09 61.2 °F 33.3 °F 29.9 in Oeste 8.7 mph 19.7 mph 35% 0 in
13:14 61 °F 33.1 °F 29.9 in OSO 10.3 mph 20 mph 35% 0 in
13:19 61 °F 33.1 °F 29.9 in Oeste 10.7 mph 20 mph 35% 0 in
13:24 61.2 °F 33.3 °F 29.9 in Oeste 9.9 mph 19 mph 35.1% 0 in
13:29 61.3 °F 33.4 °F 29.9 in Oeste 9.7 mph 25.3 mph 35% 0 in
13:34 61.3 °F 33.3 °F 29.9 in Oeste 10.1 mph 25 mph 34.8% 0 in
13:39 61.3 °F 33.3 °F 29.9 in OSO 10.2 mph 16.3 mph 34.6% 0 in
13:44 61.5 °F 32.9 °F 29.9 in Oeste 9.4 mph 23.7 mph 34% 0 in
13:49 61.5 °F 32.7 °F 29.9 in Oeste 9.2 mph 24.2 mph 33.9% 0 in
13:54 61.5 °F 32.9 °F 29.9 in Oeste 11.9 mph 24 mph 34% 0 in
13:59 61.9 °F 33.1 °F 29.9 in Oeste 12.5 mph 20 mph 34% 0 in
14:04 62.1 °F 33.4 °F 29.9 in Oeste 10.1 mph 20.7 mph 34% 0 in
14:09 62.1 °F 33.1 °F 29.9 in Oeste 9.7 mph 21.3 mph 33.7% 0 in
14:14 62.4 °F 33.4 °F 29.9 in Oeste 10.5 mph 21.3 mph 33.7% 0 in
14:19 62.4 °F 33.1 °F 29.9 in Oeste 10.7 mph 21.5 mph 33.1% 0 in
14:24 62.2 °F 33.3 °F 29.9 in ONO 12 mph 22 mph 33.6% 0 in
14:29 62.4 °F 33.4 °F 29.9 in Oeste 12.3 mph 24.6 mph 33.6% 0 in
14:34 62.6 °F 33.1 °F 29.9 in Oeste 11.6 mph 25 mph 33% 0 in
14:39 62.6 °F 33.1 °F 29.9 in Oeste 11.4 mph 24 mph 33% 0 in
14:44 62.8 °F 33.3 °F 29.9 in Oeste 11.7 mph 23 mph 33% 0 in
14:49 63 °F 33.3 °F 29.9 in Oeste 11.8 mph 21 mph 33% 0 in
14:54 63.1 °F 33.3 °F 29.9 in Oeste 10.9 mph 19 mph 32.8% 0 in
14:59 63.1 °F 33.4 °F 29.9 in Oeste 10.7 mph 19.7 mph 32.9% 0 in
15:04 63.1 °F 33.4 °F 29.9 in ONO 10.7 mph 20 mph 33% 0 in
15:09 63.1 °F 33.3 °F 29.9 in Oeste 10.7 mph 20.1 mph 32.6% 0 in
15:14 63.1 °F 33.3 °F 29.9 in Oeste 11.2 mph 23 mph 32.7% 0 in
15:19 63.1 °F 33.4 °F 29.9 in ONO 11.4 mph 23 mph 33% 0 in
15:24 63.1 °F 33.4 °F 29.9 in ONO 11.4 mph 22 mph 33% 0 in
15:29 63.1 °F 33.4 °F 29.9 in ONO 11.4 mph 20 mph 33% 0 in
15:34 63.5 °F 33.8 °F 29.9 in OSO 9.2 mph 13.7 mph 33% 0 in
15:39 63.7 °F 33.4 °F 29.9 in Oeste 8.7 mph 18.4 mph 32.2% 0 in
15:44 63.3 °F 33.8 °F 29.9 in Oeste 8.7 mph 19.7 mph 33% 0 in
15:49 63.7 °F 34 °F 29.9 in OSO 8.7 mph 20 mph 33% 0 in
15:54 63.7 °F 33.6 °F 29.9 in OSO 9.1 mph 17.3 mph 32.6% 0 in
15:59 63.3 °F 33.3 °F 29.9 in OSO 9.2 mph 19.6 mph 32.3% 0 in
16:04 63.3 °F 33.3 °F 29.9 in OSO 10.1 mph 20.7 mph 32.2% 0 in
16:09 63.5 °F 33.3 °F 29.9 in Oeste 10.2 mph 21 mph 32.2% 0 in
16:14 63.5 °F 33.3 °F 29.9 in ONO 10.6 mph 18 mph 32.2% 0 in
16:19 63.3 °F 33.3 °F 29.9 in Oeste 10.7 mph 17.3 mph 32.4% 0 in
16:24 63.3 °F 33.4 °F 29.9 in OSO 9.9 mph 17 mph 32.5% 0 in
16:29 63.7 °F 34 °F 29.9 in OSO 9.7 mph 15 mph 33% 0 in
16:34 63.9 °F 34.2 °F 29.9 in Oeste 6.6 mph 12 mph 33% 0 in
16:39 63.9 °F 33.6 °F 29.9 in OSO 5.9 mph 19 mph 32.3% 0 in
16:44 63.7 °F 33.3 °F 29.9 in Oeste 9 mph 19 mph 32.2% 0 in
16:49 63.5 °F 33.3 °F 29.9 in OSO 9.7 mph 17.3 mph 32.1% 0 in
16:54 63.3 °F 33.3 °F 29.9 in Oeste 9.7 mph 17.3 mph 32.3% 0 in
16:59 63.3 °F 33.6 °F 29.9 in OSO 9.7 mph 17 mph 32.9% 0 in
17:04 63.3 °F 33.3 °F 29.9 in OSO 7.7 mph 14 mph 32.4% 0 in
17:09 63.3 °F 32.9 °F 29.9 in OSO 7.4 mph 17.5 mph 32% 0 in
17:14 63.3 °F 33.4 °F 29.9 in OSO 8.9 mph 17 mph 32.7% 0 in
17:19 63.1 °F 33.4 °F 29.9 in OSO 9.2 mph 17 mph 32.8% 0 in
17:24 63.1 °F 33.3 °F 30 in OSO 7.9 mph 17.3 mph 32.6% 0 in
17:29 63 °F 33.3 °F 30 in OSO 7.6 mph 17 mph 32.9% 0 in
17:34 62.8 °F 33.1 °F 30 in OSO 8.9 mph 17.3 mph 32.7% 0 in
17:39 62.8 °F 33.3 °F 30 in OSO 9.2 mph 16 mph 33% 0 in
17:44 62.4 °F 32.9 °F 30 in OSO 8.3 mph 17.3 mph 33% 0 in
17:49 62.4 °F 32.9 °F 30 in OSO 8.1 mph 18.4 mph 33% 0 in
17:54 62.2 °F 32.7 °F 30 in OSO 9.6 mph 18 mph 33% 0 in
17:59 62.1 °F 32.7 °F 30 in OSO 10 mph 13 mph 33.2% 0 in
18:04 62.1 °F 32.9 °F 30 in OSO 7.3 mph 12.7 mph 33.7% 0 in
18:09 61.9 °F 33.1 °F 30 in OSO 6.9 mph 13 mph 33.9% 0 in
18:14 61.5 °F 32.9 °F 30 in OSO 7.3 mph 15.2 mph 34% 0 in
18:19 61.5 °F 32.9 °F 30 in OSO 7.4 mph 16.1 mph 34% 0 in
18:24 61.3 °F 32.7 °F 30 in OSO 8.3 mph 16.1 mph 34% 0 in
18:29 61.2 °F 32.5 °F 30 in OSO 8.5 mph 16 mph 34% 0 in
18:34 61.2 °F 32.5 °F 30 in OSO 7.8 mph 14.7 mph 34% 0 in
18:39 61.2 °F 32.5 °F 30 in OSO 7.6 mph 15 mph 34% 0 in
18:44 61.2 °F 32.5 °F 30 in OSO 7.6 mph 14 mph 34% 0 in
18:49 61.2 °F 32.5 °F 30 in OSO 7.6 mph 13.8 mph 34% 0 in
18:54 61.2 °F 32.5 °F 30 in SO 7.6 mph 14 mph 34% 0 in
18:59 61 °F 32.9 °F 30 in SO 7.6 mph 13 mph 34.8% 0 in
19:04 60.8 °F 32.9 °F 30 in SO 6.4 mph 11 mph 35% 0 in
19:09 60.6 °F 32.9 °F 30 in SO 6.2 mph 11 mph 35% 0 in
19:14 60.6 °F 32.7 °F 30 in SO 6 mph 11 mph 35% 0 in
19:19 60.6 °F 33.1 °F 30 in SSO 5.9 mph 11 mph 35.4% 0 in
19:24 60.4 °F 33.3 °F 30 in SO 6.2 mph 10 mph 36% 0 in
19:29 60.3 °F 33.3 °F 30 in SO 6.2 mph 11.5 mph 36% 0 in
19:34 60.1 °F 33.1 °F 30 in SO 6.3 mph 12.7 mph 36% 0 in
19:39 60.1 °F 33.1 °F 30 in SO 6.4 mph 14 mph 36% 0 in
19:44 59.9 °F 33.1 °F 30 in SO 6.8 mph 15 mph 36.3% 0 in
19:49 59.7 °F 33.4 °F 30 in SO 6.9 mph 15 mph 37% 0 in
19:54 59.7 °F 33.4 °F 30 in SO 7.5 mph 14 mph 37% 0 in
19:59 59.5 °F 33.3 °F 30 in OSO 7.6 mph 15.2 mph 37% 0 in
20:04 59.5 °F 33.3 °F 30 in SO 7.6 mph 15 mph 37% 0 in
20:09 59.5 °F 33.3 °F 30 in OSO 7.6 mph 13 mph 37% 0 in
20:14 59.5 °F 33.3 °F 30 in OSO 7.6 mph 15.2 mph 37% 0 in
20:19 59.5 °F 33.3 °F 30 in OSO 7.6 mph 17.8 mph 37% 0 in
20:24 59.7 °F 33.3 °F 30 in SO 8.5 mph 18.4 mph 36.8% 0 in
20:29 59.7 °F 32.7 °F 30 in OSO 8.7 mph 17.3 mph 36% 0 in
20:34 59.7 °F 33.3 °F 30 in SO 8.5 mph 16 mph 36.8% 0 in
20:39 59.5 °F 33.3 °F 30 in OSO 8.5 mph 15 mph 37% 0 in
20:44 59.5 °F 33.3 °F 30 in SO 7.6 mph 15 mph 37% 0 in
20:49 59.5 °F 33.3 °F 30 in SO 7.4 mph 17.5 mph 37% 0 in
20:54 59.5 °F 33.3 °F 30 in SO 7.4 mph 17 mph 37% 0 in
20:59 59.5 °F 33.3 °F 30 in SO 7.4 mph 10.7 mph 37% 0 in
21:04 59.5 °F 33.3 °F 30 in SSO 5.7 mph 11 mph 37% 0 in
21:09 59.5 °F 33.3 °F 30 in SSO 5.4 mph 11.4 mph 37% 0 in
21:14 59.5 °F 33.3 °F 30 in SSO 6.1 mph 12.7 mph 37% 0 in
21:19 59.5 °F 33.1 °F 30 in Sur 6.2 mph 13 mph 37% 0 in
21:24 59.4 °F 33.1 °F 30 in Sur 6.3 mph 11.5 mph 37% 0 in
21:29 59.2 °F 32.9 °F 30 in Sur 6.4 mph 12 mph 37% 0 in
21:34 59 °F 32.7 °F 30 in SSO 6.4 mph 12 mph 37% 0 in
21:39 58.8 °F 32.9 °F 30 in Sur 6.4 mph 9 mph 37.4% 0 in
21:44 58.8 °F 32.9 °F 30 in Sur 5 mph 8.7 mph 37.6% 0 in
21:49 58.6 °F 32.7 °F 30 in Sur 4.7 mph 9.2 mph 37.5% 0 in
21:54 58.5 °F 32.9 °F 30 in Sur 5.7 mph 9.7 mph 38% 0 in
21:59 58.3 °F 32.7 °F 30 in SSE 5.9 mph 10.7 mph 38% 0 in
22:04 58.3 °F 32.9 °F 30 in SSE 6.3 mph 15.2 mph 38% 0 in
22:09 58.5 °F 32.9 °F 30 in Sur 6.4 mph 16.1 mph 38% 0 in
22:14 58.5 °F 32.9 °F 30 in SSO 7.8 mph 16 mph 38% 0 in
22:19 58.5 °F 32.9 °F 30 in SSO 8.1 mph 13 mph 38% 0 in
22:24 58.3 °F 33.4 °F 30.1 in SSO 7.1 mph 13 mph 39% 0 in
22:29 57.9 °F 33.1 °F 30.1 in SSO 6.9 mph 13.7 mph 39% 0 in
22:34 58.3 °F 33.3 °F 30.1 in SSO 7.9 mph 14 mph 38.9% 0 in
22:39 58.6 °F 33.1 °F 30.1 in SSO 8.1 mph 15 mph 38% 0 in
22:44 58.5 °F 32.9 °F 30.1 in SSO 7.7 mph 15.2 mph 38% 0 in
22:49 58.3 °F 32.9 °F 30.1 in SSO 7.6 mph 15 mph 38.2% 0 in
22:54 58.1 °F 33.3 °F 30.1 in SSO 8.3 mph 13.5 mph 39% 0 in
22:59 57.7 °F 33.3 °F 30.1 in SSO 8.5 mph 13 mph 39.3% 0 in
23:04 57.6 °F 33.3 °F 30.1 in SSO 7.1 mph 12.5 mph 40% 0 in
23:09 57.2 °F 33.1 °F 30.1 in SSO 6.9 mph 13 mph 40% 0 in
23:14 57.2 °F 33.6 °F 30.1 in SSO 7.3 mph 12 mph 41% 0 in
23:19 57 °F 33.4 °F 30.1 in SSO 7.4 mph 11 mph 41% 0 in
23:24 57 °F 33.4 °F 30.1 in SO 7.4 mph 11.5 mph 41% 0 in
23:29 57 °F 33.6 °F 30.1 in SSO 7.4 mph 15.2 mph 41% 0 in
23:34 57.4 °F 33.8 °F 30.1 in SSO 8 mph 15 mph 40.7% 0 in
23:39 57.6 °F 33.4 °F 30.1 in SSO 8.1 mph 14 mph 40% 0 in
23:44 57.7 °F 33.6 °F 30.1 in SO 8.4 mph 14 mph 40% 0 in
23:49 57.7 °F 33.4 °F 30.1 in SO 8.5 mph 13 mph 39.8% 0 in
23:54 57.7 °F 33.1 °F 30.1 in SO 7.2 mph 12.3 mph 39.3% 0 in
23:59 57.6 °F 32.7 °F 30.1 in SO 6.9 mph 13 mph 39% 0 in
Murcia-Puente Tocinos, España
Compliments of Weather Underground - 3 mb

La estación de MeteoMurcia.com, publica sus datos en los siguientes proyectos:

Weather Underground PWS IMURCIAP2 Meteoclimatic www.awekas.at

W3Counter
Web Analytics